sensor_id;sensor_type;location;lat;lon;timestamp;temperature;humidity
7606;DHT22;3844;53.360;9.738;2023-04-03T00:00:36;-0.10;92.60
7606;DHT22;3844;53.360;9.738;2023-04-03T00:02:37;-0.10;92.70
7606;DHT22;3844;53.360;9.738;2023-04-03T00:04:38;-0.10;92.90
7606;DHT22;3844;53.360;9.738;2023-04-03T00:06:38;-0.10;92.90
7606;DHT22;3844;53.360;9.738;2023-04-03T00:08:40;-0.20;92.90
7606;DHT22;3844;53.360;9.738;2023-04-03T00:10:41;-0.20;93.10
7606;DHT22;3844;53.360;9.738;2023-04-03T00:12:41;-0.20;93.50
7606;DHT22;3844;53.360;9.738;2023-04-03T00:14:42;-0.20;93.60
7606;DHT22;3844;53.360;9.738;2023-04-03T00:16:42;-0.30;93.60
7606;DHT22;3844;53.360;9.738;2023-04-03T00:24:46;-0.30;93.80
7606;DHT22;3844;53.360;9.738;2023-04-03T00:26:47;-0.40;94.00
7606;DHT22;3844;53.360;9.738;2023-04-03T00:28:48;-0.40;94.10
7606;DHT22;3844;53.360;9.738;2023-04-03T00:30:49;-0.40;94.10
7606;DHT22;3844;53.360;9.738;2023-04-03T00:32:51;-0.50;93.80
7606;DHT22;3844;53.360;9.738;2023-04-03T00:36:53;-0.50;93.50
7606;DHT22;3844;53.360;9.738;2023-04-03T00:38:54;-0.50;93.50
7606;DHT22;3844;53.360;9.738;2023-04-03T00:40:54;-0.60;93.70
7606;DHT22;3844;53.360;9.738;2023-04-03T00:42:57;-0.60;93.70
7606;DHT22;3844;53.360;9.738;2023-04-03T00:47:02;-0.60;93.50
7606;DHT22;3844;53.360;9.738;2023-04-03T00:49:04;-0.70;93.80
7606;DHT22;3844;53.360;9.738;2023-04-03T00:51:07;-0.70;94.00
7606;DHT22;3844;53.360;9.738;2023-04-03T00:53:13;-0.70;94.00
7606;DHT22;3844;53.360;9.738;2023-04-03T00:55:15;-0.70;94.10
7606;DHT22;3844;53.360;9.738;2023-04-03T00:57:18;-0.80;94.10
7606;DHT22;3844;53.360;9.738;2023-04-03T00:59:23;-0.80;94.10
7606;DHT22;3844;53.360;9.738;2023-04-03T01:01:28;-0.80;94.00
7606;DHT22;3844;53.360;9.738;2023-04-03T01:03:29;-0.80;94.00
7606;DHT22;3844;53.360;9.738;2023-04-03T01:05:31;-0.90;94.30
7606;DHT22;3844;53.360;9.738;2023-04-03T01:07:33;-0.90;94.30
7606;DHT22;3844;53.360;9.738;2023-04-03T01:09:38;-0.90;94.30
7606;DHT22;3844;53.360;9.738;2023-04-03T01:11:39;-0.90;94.30
7606;DHT22;3844;53.360;9.738;2023-04-03T01:13:39;-0.90;94.30
7606;DHT22;3844;53.360;9.738;2023-04-03T01:15:41;-1.00;94.10
7606;DHT22;3844;53.360;9.738;2023-04-03T01:17:50;-1.00;94.00
7606;DHT22;3844;53.360;9.738;2023-04-03T01:22:28;-1.00;94.10
7606;DHT22;3844;53.360;9.738;2023-04-03T01:24:34;-1.10;94.20
7606;DHT22;3844;53.360;9.738;2023-04-03T01:26:36;-1.10;94.30
7606;DHT22;3844;53.360;9.738;2023-04-03T01:28:37;-1.20;94.50
7606;DHT22;3844;53.360;9.738;2023-04-03T01:30:56;-1.20;95.00
7606;DHT22;3844;53.360;9.738;2023-04-03T01:33:00;-1.30;95.50
7606;DHT22;3844;53.360;9.738;2023-04-03T01:35:01;-1.30;95.50
7606;DHT22;3844;53.360;9.738;2023-04-03T01:37:01;-1.30;95.60
7606;DHT22;3844;53.360;9.738;2023-04-03T01:39:02;-1.30;95.70
7606;DHT22;3844;53.360;9.738;2023-04-03T01:41:03;-1.30;95.70
7606;DHT22;3844;53.360;9.738;2023-04-03T01:43:04;-1.30;95.70
7606;DHT22;3844;53.360;9.738;2023-04-03T01:45:05;-1.40;95.70
7606;DHT22;3844;53.360;9.738;2023-04-03T01:47:06;-1.40;95.70
7606;DHT22;3844;53.360;9.738;2023-04-03T01:49:08;-1.40;95.70
7606;DHT22;3844;53.360;9.738;2023-04-03T01:51:08;-1.50;95.70
7606;DHT22;3844;53.360;9.738;2023-04-03T01:53:09;-1.50;95.70
7606;DHT22;3844;53.360;9.738;2023-04-03T01:55:10;-1.50;95.70
7606;DHT22;3844;53.360;9.738;2023-04-03T01:57:10;-1.50;95.70
7606;DHT22;3844;53.360;9.738;2023-04-03T02:01:13;-1.60;95.70
7606;DHT22;3844;53.360;9.738;2023-04-03T02:03:13;-1.60;95.70
7606;DHT22;3844;53.360;9.738;2023-04-03T02:05:15;-1.60;95.70
7606;DHT22;3844;53.360;9.738;2023-04-03T02:11:18;-1.70;95.70
7606;DHT22;3844;53.360;9.738;2023-04-03T02:13:19;-1.70;95.70
7606;DHT22;3844;53.360;9.738;2023-04-03T02:15:20;-1.70;95.70
7606;DHT22;3844;53.360;9.738;2023-04-03T02:17:21;-1.70;95.70
7606;DHT22;3844;53.360;9.738;2023-04-03T02:19:21;-1.70;95.70
7606;DHT22;3844;53.360;9.738;2023-04-03T02:23:23;-1.80;95.70
7606;DHT22;3844;53.360;9.738;2023-04-03T02:25:24;-1.80;95.70
7606;DHT22;3844;53.360;9.738;2023-04-03T02:27:25;-1.80;95.70
7606;DHT22;3844;53.360;9.738;2023-04-03T02:29:25;-1.80;95.70
7606;DHT22;3844;53.360;9.738;2023-04-03T02:31:26;-1.80;95.70
7606;DHT22;3844;53.360;9.738;2023-04-03T02:35:28;-1.80;95.70
7606;DHT22;3844;53.360;9.738;2023-04-03T02:37:28;-1.90;95.70
7606;DHT22;3844;53.360;9.738;2023-04-03T02:39:29;-1.90;95.70
7606;DHT22;3844;53.360;9.738;2023-04-03T02:41:30;-1.90;95.70
7606;DHT22;3844;53.360;9.738;2023-04-03T02:43:35;-1.90;95.70
7606;DHT22;3844;53.360;9.738;2023-04-03T02:45:36;-1.90;95.70
7606;DHT22;3844;53.360;9.738;2023-04-03T02:47:37;-1.90;95.70
7606;DHT22;3844;53.360;9.738;2023-04-03T02:49:38;-1.90;95.70
7606;DHT22;3844;53.360;9.738;2023-04-03T02:51:38;-1.90;95.70
7606;DHT22;3844;53.360;9.738;2023-04-03T02:53:39;-1.90;95.70
7606;DHT22;3844;53.360;9.738;2023-04-03T02:55:40;-2.00;95.70
7606;DHT22;3844;53.360;9.738;2023-04-03T02:57:41;-2.00;95.70
7606;DHT22;3844;53.360;9.738;2023-04-03T02:59:42;-2.00;95.70
7606;DHT22;3844;53.360;9.738;2023-04-03T03:01:42;-2.00;95.70
7606;DHT22;3844;53.360;9.738;2023-04-03T03:03:43;-2.10;95.70
7606;DHT22;3844;53.360;9.738;2023-04-03T03:05:44;-2.10;95.70
7606;DHT22;3844;53.360;9.738;2023-04-03T03:09:45;-2.20;95.70
7606;DHT22;3844;53.360;9.738;2023-04-03T03:11:46;-2.20;95.70
7606;DHT22;3844;53.360;9.738;2023-04-03T03:13:47;-2.20;95.70
7606;DHT22;3844;53.360;9.738;2023-04-03T03:15:47;-2.20;95.70
7606;DHT22;3844;53.360;9.738;2023-04-03T03:17:48;-2.20;95.70
7606;DHT22;3844;53.360;9.738;2023-04-03T03:19:49;-2.20;95.70
7606;DHT22;3844;53.360;9.738;2023-04-03T03:21:49;-2.20;95.70
7606;DHT22;3844;53.360;9.738;2023-04-03T03:23:51;-2.20;95.70
7606;DHT22;3844;53.360;9.738;2023-04-03T03:25:56;-2.20;95.70
7606;DHT22;3844;53.360;9.738;2023-04-03T03:29:58;-2.30;95.70
7606;DHT22;3844;53.360;9.738;2023-04-03T03:31:59;-2.30;95.70
7606;DHT22;3844;53.360;9.738;2023-04-03T03:34:00;-2.30;95.70
7606;DHT22;3844;53.360;9.738;2023-04-03T03:36:01;-2.30;95.70
7606;DHT22;3844;53.360;9.738;2023-04-03T03:38:02;-2.40;95.70
7606;DHT22;3844;53.360;9.738;2023-04-03T03:40:02;-2.40;95.70
7606;DHT22;3844;53.360;9.738;2023-04-03T03:42:03;-2.40;95.70
7606;DHT22;3844;53.360;9.738;2023-04-03T03:44:04;-2.40;95.70
7606;DHT22;3844;53.360;9.738;2023-04-03T03:46:05;-2.40;95.70
7606;DHT22;3844;53.360;9.738;2023-04-03T03:48:06;-2.40;95.70
7606;DHT22;3844;53.360;9.738;2023-04-03T03:50:07;-2.40;95.70
7606;DHT22;3844;53.360;9.738;2023-04-03T03:52:07;-2.40;95.70
7606;DHT22;3844;53.360;9.738;2023-04-03T03:54:10;-2.50;95.70
7606;DHT22;3844;53.360;9.738;2023-04-03T03:56:11;-2.50;95.70
7606;DHT22;3844;53.360;9.738;2023-04-03T04:00:13;-2.60;95.70
7606;DHT22;3844;53.360;9.738;2023-04-03T04:02:14;-2.60;95.70
7606;DHT22;3844;53.360;9.738;2023-04-03T04:08:17;-2.70;95.70
7606;DHT22;3844;53.360;9.738;2023-04-03T04:10:18;-2.70;95.70
7606;DHT22;3844;53.360;9.738;2023-04-03T04:12:19;-2.70;95.70
7606;DHT22;3844;53.360;9.738;2023-04-03T04:14:20;-2.70;95.70
7606;DHT22;3844;53.360;9.738;2023-04-03T04:16:21;-2.70;95.70
7606;DHT22;3844;53.360;9.738;2023-04-03T04:18:22;-2.70;95.70
7606;DHT22;3844;53.360;9.738;2023-04-03T04:20:23;-2.70;95.70
7606;DHT22;3844;53.360;9.738;2023-04-03T04:22:23;-2.70;95.70
7606;DHT22;3844;53.360;9.738;2023-04-03T04:24:24;-2.70;95.70
7606;DHT22;3844;53.360;9.738;2023-04-03T04:26:25;-2.80;95.70
7606;DHT22;3844;53.360;9.738;2023-04-03T04:28:26;-2.80;95.70
7606;DHT22;3844;53.360;9.738;2023-04-03T04:30:27;-2.80;95.70
7606;DHT22;3844;53.360;9.738;2023-04-03T04:32:28;-2.80;95.70
7606;DHT22;3844;53.360;9.738;2023-04-03T04:34:28;-2.80;95.70
7606;DHT22;3844;53.360;9.738;2023-04-03T04:36:30;-2.90;95.70
7606;DHT22;3844;53.360;9.738;2023-04-03T04:38:30;-2.90;95.70
7606;DHT22;3844;53.360;9.738;2023-04-03T04:40:31;-2.90;95.70
7606;DHT22;3844;53.360;9.738;2023-04-03T04:42:32;-2.90;95.70
7606;DHT22;3844;53.360;9.738;2023-04-03T04:44:32;-2.90;95.70
7606;DHT22;3844;53.360;9.738;2023-04-03T04:48:34;-2.80;95.70
7606;DHT22;3844;53.360;9.738;2023-04-03T04:50:35;-2.90;95.70
7606;DHT22;3844;53.360;9.738;2023-04-03T04:52:36;-2.90;95.70
7606;DHT22;3844;53.360;9.738;2023-04-03T04:56:38;-2.80;95.70
7606;DHT22;3844;53.360;9.738;2023-04-03T04:58:38;-2.80;95.70
7606;DHT22;3844;53.360;9.738;2023-04-03T05:02:40;-2.80;95.70
7606;DHT22;3844;53.360;9.738;2023-04-03T05:04:41;-2.80;95.70
7606;DHT22;3844;53.360;9.738;2023-04-03T05:06:42;-2.80;95.70
7606;DHT22;3844;53.360;9.738;2023-04-03T05:08:42;-2.80;95.70
7606;DHT22;3844;53.360;9.738;2023-04-03T05:10:45;-2.80;95.70
7606;DHT22;3844;53.360;9.738;2023-04-03T05:12:46;-2.80;95.70
7606;DHT22;3844;53.360;9.738;2023-04-03T05:14:47;-2.80;95.70
7606;DHT22;3844;53.360;9.738;2023-04-03T05:16:47;-2.80;95.70
7606;DHT22;3844;53.360;9.738;2023-04-03T05:18:48;-2.80;95.70
7606;DHT22;3844;53.360;9.738;2023-04-03T05:20:49;-2.70;95.70
7606;DHT22;3844;53.360;9.738;2023-04-03T05:22:51;-2.80;95.70
7606;DHT22;3844;53.360;9.738;2023-04-03T05:24:51;-2.70;95.70
7606;DHT22;3844;53.360;9.738;2023-04-03T05:28:53;-2.70;95.70
7606;DHT22;3844;53.360;9.738;2023-04-03T05:30:55;-2.70;95.70
7606;DHT22;3844;53.360;9.738;2023-04-03T05:32:58;-2.70;95.70
7606;DHT22;3844;53.360;9.738;2023-04-03T05:34:59;-2.70;95.70
7606;DHT22;3844;53.360;9.738;2023-04-03T05:37:00;-2.70;95.70
7606;DHT22;3844;53.360;9.738;2023-04-03T05:39:01;-2.70;95.70
7606;DHT22;3844;53.360;9.738;2023-04-03T05:41:02;-2.70;95.70
7606;DHT22;3844;53.360;9.738;2023-04-03T05:43:02;-2.60;95.70
7606;DHT22;3844;53.360;9.738;2023-04-03T05:45:04;-2.60;95.70
7606;DHT22;3844;53.360;9.738;2023-04-03T05:47:05;-2.60;95.70
7606;DHT22;3844;53.360;9.738;2023-04-03T05:49:05;-2.60;95.70
7606;DHT22;3844;53.360;9.738;2023-04-03T05:51:09;-2.60;95.70
7606;DHT22;3844;53.360;9.738;2023-04-03T05:53:21;-2.50;95.70
7606;DHT22;3844;53.360;9.738;2023-04-03T05:57:24;-2.50;95.70
7606;DHT22;3844;53.360;9.738;2023-04-03T05:59:25;-2.50;95.70
7606;DHT22;3844;53.360;9.738;2023-04-03T06:01:25;-2.40;95.70
7606;DHT22;3844;53.360;9.738;2023-04-03T06:03:26;-2.30;95.70
7606;DHT22;3844;53.360;9.738;2023-04-03T06:05:27;-2.20;95.70
7606;DHT22;3844;53.360;9.738;2023-04-03T06:07:28;-2.10;95.70
7606;DHT22;3844;53.360;9.738;2023-04-03T06:09:28;-2.00;95.70
7606;DHT22;3844;53.360;9.738;2023-04-03T06:11:29;-1.80;95.70
7606;DHT22;3844;53.360;9.738;2023-04-03T06:13:30;-1.70;95.70
7606;DHT22;3844;53.360;9.738;2023-04-03T06:17:32;-1.40;95.70
7606;DHT22;3844;53.360;9.738;2023-04-03T06:19:33;-1.30;95.70
7606;DHT22;3844;53.360;9.738;2023-04-03T06:21:33;-1.00;95.70
7606;DHT22;3844;53.360;9.738;2023-04-03T06:23:34;-0.70;95.70
7606;DHT22;3844;53.360;9.738;2023-04-03T06:25:35;-0.40;95.70
7606;DHT22;3844;53.360;9.738;2023-04-03T06:27:35;-0.10;95.70
7606;DHT22;3844;53.360;9.738;2023-04-03T06:29:36;0.10;95.70
7606;DHT22;3844;53.360;9.738;2023-04-03T06:31:37;0.40;95.70
7606;DHT22;3844;53.360;9.738;2023-04-03T06:37:43;1.10;95.70
7606;DHT22;3844;53.360;9.738;2023-04-03T06:39:48;1.20;95.70
7606;DHT22;3844;53.360;9.738;2023-04-03T06:41:50;1.50;95.70
7606;DHT22;3844;53.360;9.738;2023-04-03T06:43:51;1.50;95.10
7606;DHT22;3844;53.360;9.738;2023-04-03T06:45:51;1.70;95.30
7606;DHT22;3844;53.360;9.738;2023-04-03T06:47:52;1.90;95.40
7606;DHT22;3844;53.360;9.738;2023-04-03T06:49:53;2.00;95.50
7606;DHT22;3844;53.360;9.738;2023-04-03T06:51:53;2.30;95.70
7606;DHT22;3844;53.360;9.738;2023-04-03T06:53:57;2.50;95.50
7606;DHT22;3844;53.360;9.738;2023-04-03T06:55:58;2.90;94.90
7606;DHT22;3844;53.360;9.738;2023-04-03T07:02:00;3.80;93.40
7606;DHT22;3844;53.360;9.738;2023-04-03T07:04:01;4.20;92.30
7606;DHT22;3844;53.360;9.738;2023-04-03T07:06:03;4.60;91.20
7606;DHT22;3844;53.360;9.738;2023-04-03T07:08:04;4.90;89.40
7606;DHT22;3844;53.360;9.738;2023-04-03T07:10:06;5.20;88.00
7606;DHT22;3844;53.360;9.738;2023-04-03T07:12:06;5.40;85.80
7606;DHT22;3844;53.360;9.738;2023-04-03T07:14:07;5.40;84.80
7606;DHT22;3844;53.360;9.738;2023-04-03T07:16:08;5.40;84.20
7606;DHT22;3844;53.360;9.738;2023-04-03T07:18:09;5.30;81.40
7606;DHT22;3844;53.360;9.738;2023-04-03T07:20:10;5.00;80.70
7606;DHT22;3844;53.360;9.738;2023-04-03T07:22:11;4.80;81.30
7606;DHT22;3844;53.360;9.738;2023-04-03T07:24:12;4.70;82.40
7606;DHT22;3844;53.360;9.738;2023-04-03T07:28:14;4.90;79.40
7606;DHT22;3844;53.360;9.738;2023-04-03T07:30:16;5.30;79.70
7606;DHT22;3844;53.360;9.738;2023-04-03T07:32:17;5.80;78.60
7606;DHT22;3844;53.360;9.738;2023-04-03T07:34:17;6.20;74.80
7606;DHT22;3844;53.360;9.738;2023-04-03T07:36:20;6.70;75.40
7606;DHT22;3844;53.360;9.738;2023-04-03T07:38:21;7.30;74.60
7606;DHT22;3844;53.360;9.738;2023-04-03T07:40:22;7.80;72.60
7606;DHT22;3844;53.360;9.738;2023-04-03T07:42:23;8.00;68.50
7606;DHT22;3844;53.360;9.738;2023-04-03T07:44:24;8.00;68.30
7606;DHT22;3844;53.360;9.738;2023-04-03T07:46:25;8.30;69.60
7606;DHT22;3844;53.360;9.738;2023-04-03T07:48:26;8.50;68.80
7606;DHT22;3844;53.360;9.738;2023-04-03T07:50:27;8.80;66.50
7606;DHT22;3844;53.360;9.738;2023-04-03T07:52:27;9.10;66.60
7606;DHT22;3844;53.360;9.738;2023-04-03T07:54:28;9.30;63.90
7606;DHT22;3844;53.360;9.738;2023-04-03T07:56:29;9.40;65.50
7606;DHT22;3844;53.360;9.738;2023-04-03T07:58:30;9.60;63.40
7606;DHT22;3844;53.360;9.738;2023-04-03T08:00:31;9.60;62.50
7606;DHT22;3844;53.360;9.738;2023-04-03T08:02:32;9.60;62.40
7606;DHT22;3844;53.360;9.738;2023-04-03T08:04:32;9.70;63.70
7606;DHT22;3844;53.360;9.738;2023-04-03T08:06:33;10.00;62.80
7606;DHT22;3844;53.360;9.738;2023-04-03T08:08:36;10.20;63.80
7606;DHT22;3844;53.360;9.738;2023-04-03T08:10:37;10.30;60.90
7606;DHT22;3844;53.360;9.738;2023-04-03T08:12:38;10.50;62.50
7606;DHT22;3844;53.360;9.738;2023-04-03T08:16:40;10.90;61.20
7606;DHT22;3844;53.360;9.738;2023-04-03T08:20:42;11.30;59.10
7606;DHT22;3844;53.360;9.738;2023-04-03T08:22:43;11.50;59.10
7606;DHT22;3844;53.360;9.738;2023-04-03T08:24:44;11.60;57.50
7606;DHT22;3844;53.360;9.738;2023-04-03T08:26:44;11.70;58.10
7606;DHT22;3844;53.360;9.738;2023-04-03T08:30:46;11.70;57.80
7606;DHT22;3844;53.360;9.738;2023-04-03T08:32:47;11.80;58.10
7606;DHT22;3844;53.360;9.738;2023-04-03T08:34:48;11.90;57.00
7606;DHT22;3844;53.360;9.738;2023-04-03T08:36:48;11.90;55.30
7606;DHT22;3844;53.360;9.738;2023-04-03T08:38:50;12.00;56.00
7606;DHT22;3844;53.360;9.738;2023-04-03T08:41:39;12.30;56.20
7606;DHT22;3844;53.360;9.738;2023-04-03T08:46:05;12.80;54.80
7606;DHT22;3844;53.360;9.738;2023-04-03T08:48:24;13.20;53.30
7606;DHT22;3844;53.360;9.738;2023-04-03T08:50:31;13.60;52.10
7606;DHT22;3844;53.360;9.738;2023-04-03T08:52:44;13.80;50.90
7606;DHT22;3844;53.360;9.738;2023-04-03T08:55:00;13.60;50.60
7606;DHT22;3844;53.360;9.738;2023-04-03T08:57:04;13.70;52.50
7606;DHT22;3844;53.360;9.738;2023-04-03T08:59:12;14.00;51.60
7606;DHT22;3844;53.360;9.738;2023-04-03T09:01:25;13.70;49.20
7606;DHT22;3844;53.360;9.738;2023-04-03T09:03:30;13.40;52.00
7606;DHT22;3844;53.360;9.738;2023-04-03T09:05:39;13.60;52.60
7606;DHT22;3844;53.360;9.738;2023-04-03T09:07:49;14.20;53.60
7606;DHT22;3844;53.360;9.738;2023-04-03T09:09:56;14.60;51.40
7606;DHT22;3844;53.360;9.738;2023-04-03T09:14:17;15.40;50.90
7606;DHT22;3844;53.360;9.738;2023-04-03T09:16:28;16.00;50.70
7606;DHT22;3844;53.360;9.738;2023-04-03T09:18:35;16.50;48.80
7606;DHT22;3844;53.360;9.738;2023-04-03T09:22:43;16.90;47.40
7606;DHT22;3844;53.360;9.738;2023-04-03T09:24:47;17.10;46.00
7606;DHT22;3844;53.360;9.738;2023-04-03T09:27:01;17.40;46.60
7606;DHT22;3844;53.360;9.738;2023-04-03T09:29:07;17.40;46.30
7606;DHT22;3844;53.360;9.738;2023-04-03T09:31:27;16.70;44.30
7606;DHT22;3844;53.360;9.738;2023-04-03T09:33:29;16.40;44.40
7606;DHT22;3844;53.360;9.738;2023-04-03T09:35:32;16.70;44.70
7606;DHT22;3844;53.360;9.738;2023-04-03T09:37:38;16.70;44.80
7606;DHT22;3844;53.360;9.738;2023-04-03T09:39:53;17.10;45.40
7606;DHT22;3844;53.360;9.738;2023-04-03T09:44:00;18.20;44.50
7606;DHT22;3844;53.360;9.738;2023-04-03T09:46:29;18.40;44.10
7606;DHT22;3844;53.360;9.738;2023-04-03T09:48:30;18.70;43.20
7606;DHT22;3844;53.360;9.738;2023-04-03T09:50:31;18.80;40.80
7606;DHT22;3844;53.360;9.738;2023-04-03T09:52:32;18.60;40.40
7606;DHT22;3844;53.360;9.738;2023-04-03T09:54:36;18.50;42.30
7606;DHT22;3844;53.360;9.738;2023-04-03T09:56:38;18.30;41.70
7606;DHT22;3844;53.360;9.738;2023-04-03T09:58:40;17.80;42.50
7606;DHT22;3844;53.360;9.738;2023-04-03T10:00:42;17.80;43.10
7606;DHT22;3844;53.360;9.738;2023-04-03T10:02:43;17.60;42.80
7606;DHT22;3844;53.360;9.738;2023-04-03T10:04:43;17.60;43.20
7606;DHT22;3844;53.360;9.738;2023-04-03T10:06:50;17.30;43.20
7606;DHT22;3844;53.360;9.738;2023-04-03T10:09:04;17.30;45.00
7606;DHT22;3844;53.360;9.738;2023-04-03T10:13:13;17.00;42.30
7606;DHT22;3844;53.360;9.738;2023-04-03T10:15:16;16.70;43.80
7606;DHT22;3844;53.360;9.738;2023-04-03T10:19:40;16.20;43.50
7606;DHT22;3844;53.360;9.738;2023-04-03T10:21:50;15.50;44.10
7606;DHT22;3844;53.360;9.738;2023-04-03T10:24:14;14.70;44.80
7606;DHT22;3844;53.360;9.738;2023-04-03T10:26:40;13.60;44.80
7606;DHT22;3844;53.360;9.738;2023-04-03T10:31:39;12.60;45.90
7606;DHT22;3844;53.360;9.738;2023-04-03T10:40:24;11.50;48.00
7606;DHT22;3844;53.360;9.738;2023-04-03T10:42:42;11.30;50.30
7606;DHT22;3844;53.360;9.738;2023-04-03T10:49:30;10.80;49.40
7606;DHT22;3844;53.360;9.738;2023-04-03T10:51:47;10.80;50.10
7606;DHT22;3844;53.360;9.738;2023-04-03T10:54:29;10.80;50.60
7606;DHT22;3844;53.360;9.738;2023-04-03T10:58:52;10.80;50.30
7606;DHT22;3844;53.360;9.738;2023-04-03T11:00:59;10.70;50.80
7606;DHT22;3844;53.360;9.738;2023-04-03T11:03:15;10.60;50.60
7606;DHT22;3844;53.360;9.738;2023-04-03T11:05:40;10.60;51.00
7606;DHT22;3844;53.360;9.738;2023-04-03T11:07:46;10.60;50.90
7606;DHT22;3844;53.360;9.738;2023-04-03T11:09:52;10.50;50.10
7606;DHT22;3844;53.360;9.738;2023-04-03T11:12:04;10.40;51.00
7606;DHT22;3844;53.360;9.738;2023-04-03T11:14:11;10.60;50.60
7606;DHT22;3844;53.360;9.738;2023-04-03T11:16:21;10.70;49.00
7606;DHT22;3844;53.360;9.738;2023-04-03T11:18:44;10.60;49.90
7606;DHT22;3844;53.360;9.738;2023-04-03T11:20:59;10.50;49.00
7606;DHT22;3844;53.360;9.738;2023-04-03T11:23:05;11.20;50.40
7606;DHT22;3844;53.360;9.738;2023-04-03T11:25:14;12.00;49.60
7606;DHT22;3844;53.360;9.738;2023-04-03T11:27:20;13.30;48.80
7606;DHT22;3844;53.360;9.738;2023-04-03T11:29:31;14.50;46.60
7606;DHT22;3844;53.360;9.738;2023-04-03T11:32:01;15.50;44.70
7606;DHT22;3844;53.360;9.738;2023-04-03T11:36:31;14.90;42.50
7606;DHT22;3844;53.360;9.738;2023-04-03T11:38:36;14.30;44.00
7606;DHT22;3844;53.360;9.738;2023-04-03T11:40:39;13.80;45.40
7606;DHT22;3844;53.360;9.738;2023-04-03T11:42:43;13.30;46.10
7606;DHT22;3844;53.360;9.738;2023-04-03T11:44:46;13.30;46.20
7606;DHT22;3844;53.360;9.738;2023-04-03T11:46:56;13.30;44.40
7606;DHT22;3844;53.360;9.738;2023-04-03T11:48:56;13.70;47.00
7606;DHT22;3844;53.360;9.738;2023-04-03T11:53:38;15.40;44.80
7606;DHT22;3844;53.360;9.738;2023-04-03T11:55:53;16.00;41.80
7606;DHT22;3844;53.360;9.738;2023-04-03T11:59:58;16.20;39.40
7606;DHT22;3844;53.360;9.738;2023-04-03T12:01:58;15.70;40.80
7606;DHT22;3844;53.360;9.738;2023-04-03T12:04:08;15.00;41.30
7606;DHT22;3844;53.360;9.738;2023-04-03T12:08:28;14.20;43.40
7606;DHT22;3844;53.360;9.738;2023-04-03T12:10:29;13.80;43.10
7606;DHT22;3844;53.360;9.738;2023-04-03T12:12:37;13.70;44.40
7606;DHT22;3844;53.360;9.738;2023-04-03T12:14:38;13.50;42.80
7606;DHT22;3844;53.360;9.738;2023-04-03T12:18:53;13.60;43.80
7606;DHT22;3844;53.360;9.738;2023-04-03T12:20:59;13.50;42.50
7606;DHT22;3844;53.360;9.738;2023-04-03T12:25:49;12.40;44.50
7606;DHT22;3844;53.360;9.738;2023-04-03T12:27:51;12.10;45.60
7606;DHT22;3844;53.360;9.738;2023-04-03T12:39:55;14.40;45.80
7606;DHT22;3844;53.360;9.738;2023-04-03T12:46:18;15.70;40.60
7606;DHT22;3844;53.360;9.738;2023-04-03T12:48:24;15.10;42.70
7606;DHT22;3844;53.360;9.738;2023-04-03T12:50:31;14.80;42.90
7606;DHT22;3844;53.360;9.738;2023-04-03T12:54:38;15.00;46.30
7606;DHT22;3844;53.360;9.738;2023-04-03T12:56:40;15.40;43.10
7606;DHT22;3844;53.360;9.738;2023-04-03T12:58:40;15.60;44.40
7606;DHT22;3844;53.360;9.738;2023-04-03T13:02:44;15.20;43.10
7606;DHT22;3844;53.360;9.738;2023-04-03T13:04:46;14.80;44.10
7606;DHT22;3844;53.360;9.738;2023-04-03T13:06:47;14.40;43.50
7606;DHT22;3844;53.360;9.738;2023-04-03T13:08:49;14.00;43.80
7606;DHT22;3844;53.360;9.738;2023-04-03T13:13:08;13.30;46.50
7606;DHT22;3844;53.360;9.738;2023-04-03T13:17:16;12.80;46.10
7606;DHT22;3844;53.360;9.738;2023-04-03T13:19:17;12.60;46.80
7606;DHT22;3844;53.360;9.738;2023-04-03T13:23:24;12.10;47.50
7606;DHT22;3844;53.360;9.738;2023-04-03T13:25:28;11.70;48.70
7606;DHT22;3844;53.360;9.738;2023-04-03T13:27:31;11.50;48.40
7606;DHT22;3844;53.360;9.738;2023-04-03T13:29:35;11.80;50.10
7606;DHT22;3844;53.360;9.738;2023-04-03T13:31:38;12.40;49.20
7606;DHT22;3844;53.360;9.738;2023-04-03T13:36:16;13.50;48.40
7606;DHT22;3844;53.360;9.738;2023-04-03T13:40:18;14.10;46.10
7606;DHT22;3844;53.360;9.738;2023-04-03T13:42:28;13.90;45.70
7606;DHT22;3844;53.360;9.738;2023-04-03T13:44:35;13.50;46.20
7606;DHT22;3844;53.360;9.738;2023-04-03T13:46:36;12.90;46.50
7606;DHT22;3844;53.360;9.738;2023-04-03T13:50:59;11.90;48.30
7606;DHT22;3844;53.360;9.738;2023-04-03T13:53:08;11.50;48.80
7606;DHT22;3844;53.360;9.738;2023-04-03T13:55:26;11.20;49.60
7606;DHT22;3844;53.360;9.738;2023-04-03T13:57:28;11.40;50.90
7606;DHT22;3844;53.360;9.738;2023-04-03T13:59:35;11.70;49.90
7606;DHT22;3844;53.360;9.738;2023-04-03T14:04:16;12.70;47.60
7606;DHT22;3844;53.360;9.738;2023-04-03T14:06:17;13.10;45.30
7606;DHT22;3844;53.360;9.738;2023-04-03T14:08:18;13.30;44.80
7606;DHT22;3844;53.360;9.738;2023-04-03T14:10:20;13.60;47.10
7606;DHT22;3844;53.360;9.738;2023-04-03T14:12:31;13.90;44.70
7606;DHT22;3844;53.360;9.738;2023-04-03T14:14:35;13.90;45.10
7606;DHT22;3844;53.360;9.738;2023-04-03T14:16:39;13.80;44.00
7606;DHT22;3844;53.360;9.738;2023-04-03T14:18:41;13.70;46.10
7606;DHT22;3844;53.360;9.738;2023-04-03T14:20:42;13.60;45.40
7606;DHT22;3844;53.360;9.738;2023-04-03T14:22:43;13.50;46.00
7606;DHT22;3844;53.360;9.738;2023-04-03T14:24:45;13.20;46.40
7606;DHT22;3844;53.360;9.738;2023-04-03T14:26:47;12.90;46.90
7606;DHT22;3844;53.360;9.738;2023-04-03T14:28:51;12.60;47.60
7606;DHT22;3844;53.360;9.738;2023-04-03T14:30:52;12.20;48.10
7606;DHT22;3844;53.360;9.738;2023-04-03T14:32:53;12.10;47.60
7606;DHT22;3844;53.360;9.738;2023-04-03T14:34:55;11.90;48.70
7606;DHT22;3844;53.360;9.738;2023-04-03T14:38:58;12.00;47.80
7606;DHT22;3844;53.360;9.738;2023-04-03T14:40:59;12.00;47.70
7606;DHT22;3844;53.360;9.738;2023-04-03T14:43:00;12.10;47.30
7606;DHT22;3844;53.360;9.738;2023-04-03T14:45:10;12.20;47.00
7606;DHT22;3844;53.360;9.738;2023-04-03T14:47:13;12.00;47.20
7606;DHT22;3844;53.360;9.738;2023-04-03T14:49:18;11.60;47.50
7606;DHT22;3844;53.360;9.738;2023-04-03T14:51:19;11.30;47.90
7606;DHT22;3844;53.360;9.738;2023-04-03T14:53:20;10.90;49.60
7606;DHT22;3844;53.360;9.738;2023-04-03T14:55:26;10.60;49.70
7606;DHT22;3844;53.360;9.738;2023-04-03T14:57:29;10.50;50.80
7606;DHT22;3844;53.360;9.738;2023-04-03T14:59:31;10.50;50.60
7606;DHT22;3844;53.360;9.738;2023-04-03T15:01:32;10.40;48.80
7606;DHT22;3844;53.360;9.738;2023-04-03T15:03:33;10.40;49.90
7606;DHT22;3844;53.360;9.738;2023-04-03T15:05:35;10.10;49.10
7606;DHT22;3844;53.360;9.738;2023-04-03T15:07:48;10.00;50.10
7606;DHT22;3844;53.360;9.738;2023-04-03T15:09:50;9.90;50.70
7606;DHT22;3844;53.360;9.738;2023-04-03T15:11:53;9.80;50.00
7606;DHT22;3844;53.360;9.738;2023-04-03T15:13:53;9.60;49.50
7606;DHT22;3844;53.360;9.738;2023-04-03T15:15:54;9.30;49.20
7606;DHT22;3844;53.360;9.738;2023-04-03T15:17:56;9.20;50.10
7606;DHT22;3844;53.360;9.738;2023-04-03T15:20:00;9.00;50.00
7606;DHT22;3844;53.360;9.738;2023-04-03T15:24:02;8.80;50.00
7606;DHT22;3844;53.360;9.738;2023-04-03T15:26:03;8.70;51.70
7606;DHT22;3844;53.360;9.738;2023-04-03T15:28:04;8.70;50.70
7606;DHT22;3844;53.360;9.738;2023-04-03T15:30:06;8.70;50.80
7606;DHT22;3844;53.360;9.738;2023-04-03T15:32:08;8.60;50.20
7606;DHT22;3844;53.360;9.738;2023-04-03T15:34:09;8.60;50.90
7606;DHT22;3844;53.360;9.738;2023-04-03T15:36:10;8.60;50.50
7606;DHT22;3844;53.360;9.738;2023-04-03T15:38:10;8.60;51.10
7606;DHT22;3844;53.360;9.738;2023-04-03T15:40:12;8.70;50.60
7606;DHT22;3844;53.360;9.738;2023-04-03T15:42:13;8.70;50.60
7606;DHT22;3844;53.360;9.738;2023-04-03T15:44:14;8.70;51.10
7606;DHT22;3844;53.360;9.738;2023-04-03T15:46:17;8.70;51.10
7606;DHT22;3844;53.360;9.738;2023-04-03T15:48:18;8.60;51.50
7606;DHT22;3844;53.360;9.738;2023-04-03T15:50:19;8.50;51.00